ADDS METAR Data INFO
IDs: Format: Raw Decoded Include TAF

Data at: 1912 UTC 23 Apr 2018

METAR for:KRSW (Ft Myers/SW Florida, FL, US)
Text:KRSW 231853Z 21014KT 10SM SCT032 29/22 A2999 RMK AO2 SLP153 T02940217
Temperature: 29.4°C ( 85°F)
Dewpoint: 21.7°C ( 71°F) [RH = 63%]
Pressure (altimeter):29.99 inches Hg (1015.7 mb) [Sea level pressure: 1015.3 mb]
Winds:from the SSW (210 degrees) at 16 MPH (14 knots; 7.2 m/s)
Visibility:10 or more sm (16+ km)
Ceiling:at least 12,000 feet AGL
Clouds: scattered clouds at 3200 feet AGL